createdAt,value
2018-11-04T00:02:11.144Z,85.20
2018-11-04T00:04:39.652Z,84.47
2018-11-04T00:07:08.208Z,84.41
2018-11-04T00:09:36.783Z,84.79
2018-11-04T00:12:05.501Z,84.26
2018-11-04T00:14:33.950Z,84.09
2018-11-04T00:17:02.508Z,85.22
2018-11-04T00:19:30.977Z,83.85
2018-11-04T00:21:59.478Z,84.26
2018-11-04T00:24:27.981Z,85.33
2018-11-04T00:26:56.503Z,83.87
2018-11-04T00:29:24.994Z,83.96
2018-11-04T00:31:53.535Z,84.21
2018-11-04T00:34:22.119Z,85.40
2018-11-04T00:36:50.634Z,85.77
2018-11-04T00:39:19.124Z,85.78
2018-11-04T00:41:47.628Z,84.39
2018-11-04T00:44:16.096Z,84.78
2018-11-04T00:46:44.636Z,84.75
2018-11-04T00:49:13.201Z,84.91
2018-11-04T00:51:41.680Z,84.89
2018-11-04T00:54:10.134Z,84.90
2018-11-04T00:56:39.206Z,85.76
2018-11-04T00:59:07.811Z,85.15
2018-11-04T01:01:36.418Z,85.10
2018-11-04T01:04:05.165Z,84.50
2018-11-04T01:06:33.777Z,83.38
2018-11-04T01:09:02.301Z,83.71
2018-11-04T01:11:30.860Z,85.07
2018-11-04T01:13:59.394Z,84.45
2018-11-04T01:16:28.008Z,84.21
2018-11-04T01:18:56.579Z,84.95
2018-11-04T01:21:25.098Z,85.15
2018-11-04T01:23:53.547Z,85.51
2018-11-04T01:26:22.071Z,85.70
2018-11-04T01:28:51.250Z,85.19
2018-11-04T01:31:19.713Z,84.58
2018-11-04T01:33:48.268Z,84.06
2018-11-04T01:36:16.883Z,84.57
2018-11-04T01:38:46.125Z,84.02
2018-11-04T01:41:14.633Z,83.68
2018-11-04T01:43:43.098Z,84.72
2018-11-04T01:46:11.637Z,84.61
2018-11-04T01:48:40.188Z,84.59
2018-11-04T01:51:09.460Z,84.14
2018-11-04T01:53:37.917Z,84.46
2018-11-04T01:56:06.368Z,84.84
2018-11-04T01:58:35.173Z,84.74
2018-11-04T02:01:03.657Z,84.32
2018-11-04T02:03:32.489Z,83.86
2018-11-04T02:06:00.918Z,84.13
2018-11-04T02:08:29.463Z,84.11
2018-11-04T02:10:58.473Z,85.73
2018-11-04T02:13:26.992Z,85.11
2018-11-04T02:15:55.579Z,84.70
2018-11-04T02:18:24.486Z,85.18
2018-11-04T02:20:52.924Z,85.72
2018-11-04T02:23:21.623Z,85.80
2018-11-04T02:25:50.057Z,85.19
2018-11-04T02:28:18.609Z,85.92
2018-11-04T02:30:47.269Z,85.93
2018-11-04T02:33:15.767Z,85.97
2018-11-04T02:35:44.538Z,85.43
2018-11-04T02:38:13.048Z,85.51
2018-11-04T02:40:41.511Z,84.71
2018-11-04T02:43:09.960Z,85.33
2018-11-04T02:45:38.412Z,84.82
2018-11-04T02:48:07.380Z,85.34
2018-11-04T02:50:35.894Z,84.99
2018-11-04T02:53:04.733Z,85.02
2018-11-04T02:55:33.204Z,85.34
2018-11-04T02:58:01.708Z,84.86
2018-11-04T03:00:30.205Z,85.54
2018-11-04T03:02:58.702Z,86.24
2018-11-04T03:05:27.215Z,85.68
2018-11-04T03:07:55.709Z,85.80
2018-11-04T03:10:24.259Z,85.91
2018-11-04T03:12:52.699Z,85.51
2018-11-04T03:15:21.292Z,85.92
2018-11-04T03:17:49.792Z,85.42
2018-11-04T03:20:18.326Z,84.97
2018-11-04T03:22:46.847Z,86.10
2018-11-04T03:25:15.305Z,86.42
2018-11-04T03:27:44.167Z,85.77
2018-11-04T03:30:12.642Z,85.96
2018-11-04T03:32:41.121Z,86.48
2018-11-04T03:35:10.268Z,86.00
2018-11-04T03:37:38.739Z,85.68
2018-11-04T03:40:09.146Z,85.78
2018-11-04T03:42:37.621Z,85.77
2018-11-04T03:45:06.829Z,86.06
2018-11-04T03:47:36.345Z,85.86
2018-11-04T03:50:06.007Z,85.17
2018-11-04T03:52:34.472Z,85.57
2018-11-04T03:55:02.981Z,85.76
2018-11-04T03:57:31.463Z,85.78
2018-11-04T03:59:59.938Z,85.70
2018-11-04T04:02:28.406Z,85.87
2018-11-04T04:04:56.859Z,84.82
2018-11-04T04:07:25.895Z,85.17
2018-11-04T04:09:54.364Z,85.19
2018-11-04T04:12:22.833Z,85.51
2018-11-04T04:14:51.400Z,85.74
2018-11-04T04:17:19.828Z,85.92
2018-11-04T04:19:48.944Z,86.10
2018-11-04T04:22:17.447Z,86.24
2018-11-04T04:24:46.028Z,85.39
2018-11-04T04:27:14.455Z,85.21
2018-11-04T04:29:42.992Z,86.49
2018-11-04T04:32:11.480Z,86.35
2018-11-04T04:34:40.023Z,85.35
2018-11-04T04:37:09.222Z,85.53
2018-11-04T04:39:37.711Z,85.73
2018-11-04T04:42:06.457Z,86.49
2018-11-04T04:44:35.561Z,86.74
2018-11-04T04:47:06.146Z,86.09
2018-11-04T04:49:34.773Z,86.50
2018-11-04T04:52:03.212Z,86.67
2018-11-04T04:54:31.708Z,87.08
2018-11-04T04:57:00.364Z,86.95
2018-11-04T04:59:29.737Z,87.42
2018-11-04T05:02:00.924Z,86.41
2018-11-04T05:04:29.720Z,86.56
2018-11-04T05:06:59.093Z,86.73
2018-11-04T05:09:28.127Z,86.16
2018-11-04T05:11:56.665Z,86.29
2018-11-04T05:14:25.249Z,86.27
2018-11-04T05:16:54.347Z,87.12
2018-11-04T05:19:22.795Z,87.11
2018-11-04T05:21:51.418Z,87.09
2018-11-04T05:24:19.897Z,86.47
2018-11-04T05:26:49.768Z,86.38
2018-11-04T05:29:18.264Z,86.55
2018-11-04T05:31:47.356Z,86.02
2018-11-04T05:34:16.301Z,87.25
2018-11-04T05:36:44.763Z,86.40
2018-11-04T05:39:13.282Z,87.37
2018-11-04T05:41:41.804Z,87.59
2018-11-04T05:44:10.797Z,87.24
2018-11-04T05:46:39.851Z,87.43
2018-11-04T05:49:08.563Z,87.97
2018-11-04T05:51:37.030Z,87.80
2018-11-04T05:54:05.964Z,87.50
2018-11-04T05:56:34.851Z,87.54
2018-11-04T05:59:03.349Z,87.29
2018-11-04T06:01:31.798Z,88.05
2018-11-04T06:04:00.260Z,87.40
2018-11-04T06:06:29.598Z,87.86
2018-11-04T06:08:58.180Z,87.96
2018-11-04T06:11:26.667Z,86.38
2018-11-04T06:13:55.701Z,87.15
2018-11-04T06:16:24.781Z,87.25
2018-11-04T06:18:53.307Z,88.16
2018-11-04T06:21:21.821Z,86.52
2018-11-04T06:23:50.864Z,87.40
2018-11-04T06:26:19.442Z,87.38
2018-11-04T06:28:47.985Z,86.86
2018-11-04T06:31:16.450Z,87.52
2018-11-04T06:33:44.998Z,88.07
2018-11-04T06:36:13.464Z,87.68
2018-11-04T06:38:41.979Z,87.95
2018-11-04T06:41:10.599Z,88.27
2018-11-04T06:43:39.659Z,88.08
2018-11-04T06:46:08.845Z,88.07
2018-11-04T06:48:37.478Z,88.01
2018-11-04T06:51:05.998Z,87.42
2018-11-04T06:53:34.411Z,87.52
2018-11-04T06:56:02.943Z,86.82
2018-11-04T06:58:31.534Z,87.62
2018-11-04T07:01:00.500Z,87.11
2018-11-04T07:03:29.643Z,87.32
2018-11-04T07:05:58.133Z,87.08
2018-11-04T07:08:27.001Z,87.57
2018-11-04T07:10:55.480Z,87.18
2018-11-04T07:13:23.949Z,87.10
2018-11-04T07:15:52.550Z,87.71
2018-11-04T07:18:21.061Z,86.69
2018-11-04T07:20:51.111Z,85.96
2018-11-04T07:23:19.603Z,86.07
2018-11-04T07:25:49.133Z,85.53
2018-11-04T07:28:17.666Z,84.83
2018-11-04T07:30:46.159Z,86.29
2018-11-04T07:33:14.630Z,85.79
2018-11-04T07:35:43.050Z,86.38
2018-11-04T07:38:11.531Z,85.62
2018-11-04T07:42:04.479Z,85.67
2018-11-04T07:44:32.935Z,85.58
2018-11-04T07:47:01.716Z,85.76
2018-11-04T07:49:31.127Z,86.63
2018-11-04T07:52:00.912Z,86.17
2018-11-04T07:54:30.204Z,85.85
2018-11-04T07:56:58.736Z,85.98
2018-11-04T07:59:27.439Z,85.74
2018-11-04T08:01:57.953Z,85.50
2018-11-04T08:04:26.533Z,83.83
2018-11-04T08:06:55.756Z,83.95
2018-11-04T08:09:24.224Z,83.93
2018-11-04T08:11:52.668Z,83.15
2018-11-04T08:14:21.411Z,83.41
2018-11-04T08:16:50.698Z,84.16
2018-11-04T08:19:19.211Z,81.57
2018-11-04T08:21:47.718Z,81.61
2018-11-04T08:24:16.230Z,82.77
2018-11-04T08:26:46.066Z,82.83
2018-11-04T08:29:15.127Z,82.52
2018-11-04T08:31:43.602Z,82.81
2018-11-04T08:34:12.153Z,81.44
2018-11-04T08:36:41.744Z,82.06
2018-11-04T08:39:11.448Z,82.07
2018-11-04T08:41:40.056Z,80.72
2018-11-04T08:44:08.699Z,81.32
2018-11-04T08:46:37.200Z,81.83
2018-11-04T08:49:05.948Z,81.95
2018-11-04T08:51:35.320Z,81.10
2018-11-04T08:54:04.897Z,80.28
2018-11-04T08:56:33.396Z,79.21
2018-11-04T08:59:02.904Z,79.61
2018-11-04T09:01:32.089Z,78.69
2018-11-04T09:04:00.816Z,77.88
2018-11-04T09:06:30.421Z,77.66
2018-11-04T09:08:59.976Z,78.10
2018-11-04T09:11:28.783Z,77.96
2018-11-04T09:13:57.268Z,79.23
2018-11-04T09:16:26.662Z,77.69
2018-11-04T09:18:55.219Z,78.52
2018-11-04T09:21:23.671Z,77.40
2018-11-04T09:23:53.109Z,77.91
2018-11-04T09:26:21.569Z,77.84
2018-11-04T09:28:50.781Z,77.03
2018-11-04T09:31:19.344Z,77.68
2018-11-04T09:33:48.973Z,78.80
2018-11-04T09:36:20.144Z,77.93
2018-11-04T09:38:53.362Z,78.56
2018-11-04T09:41:22.252Z,77.06
2018-11-04T09:43:52.024Z,76.06
2018-11-04T09:46:20.590Z,75.04
2018-11-04T09:48:50.081Z,73.84
2018-11-04T09:51:18.830Z,72.94
2018-11-04T09:53:48.000Z,72.91
2018-11-04T09:56:16.604Z,71.87
2018-11-04T09:58:45.163Z,73.95
2018-11-04T10:01:14.262Z,74.53
2018-11-04T10:03:43.512Z,71.30
2018-11-04T10:06:13.097Z,73.31
2018-11-04T10:08:41.586Z,73.37
2018-11-04T10:11:10.666Z,72.08
2018-11-04T10:13:40.215Z,71.77
2018-11-04T10:16:09.818Z,72.17
2018-11-04T10:18:38.244Z,71.33
2018-11-04T10:21:07.447Z,71.60
2018-11-04T10:23:35.566Z,72.89
2018-11-04T10:26:04.136Z,72.44
2018-11-04T10:28:33.256Z,72.77
2018-11-04T10:31:01.881Z,70.79
2018-11-04T10:33:30.469Z,72.52
2018-11-04T10:35:59.054Z,70.87
2018-11-04T10:38:29.244Z,71.85
2018-11-04T10:40:57.740Z,71.45
2018-11-04T10:43:26.278Z,71.65
2018-11-04T10:45:54.739Z,71.44
2018-11-04T10:48:23.625Z,70.28
2018-11-04T10:50:52.138Z,72.04
2018-11-04T10:53:20.680Z,72.41
2018-11-04T10:55:50.749Z,71.75
2018-11-04T10:58:19.155Z,72.83
2018-11-04T11:00:52.936Z,71.00
2018-11-04T11:03:21.408Z,71.05
2018-11-04T11:05:50.450Z,72.09
2018-11-04T11:08:19.144Z,70.63
2018-11-04T11:10:47.648Z,69.86
2018-11-04T11:13:16.672Z,72.21
2018-11-04T11:15:45.125Z,72.47
2018-11-04T11:18:13.617Z,71.34
2018-11-04T11:20:43.029Z,70.76
2018-11-04T11:23:12.289Z,72.05
2018-11-04T11:25:40.721Z,70.89
2018-11-04T11:28:10.011Z,72.00
2018-11-04T11:30:38.781Z,70.63
2018-11-04T11:33:07.300Z,71.61
2018-11-04T11:35:36.549Z,69.53
2018-11-04T11:38:05.797Z,73.88
2018-11-04T11:40:35.145Z,71.33
2018-11-04T11:43:03.648Z,72.47
2018-11-04T11:45:32.201Z,70.27
2018-11-04T11:48:00.816Z,70.46
2018-11-04T11:50:29.313Z,72.18
2018-11-04T11:52:57.871Z,70.07
2018-11-04T11:55:26.369Z,70.17
2018-11-04T11:57:55.393Z,68.27
2018-11-04T12:00:24.133Z,69.19
2018-11-04T12:02:53.372Z,68.53
2018-11-04T12:05:21.849Z,66.69
2018-11-04T12:07:50.417Z,65.96
2018-11-04T12:10:18.878Z,66.55
2018-11-04T12:12:48.027Z,67.72
2018-11-04T12:15:16.479Z,67.65
2018-11-04T12:17:45.338Z,67.79
2018-11-04T12:20:14.553Z,67.50
2018-11-04T12:22:44.598Z,66.64
2018-11-04T12:25:13.693Z,65.59
2018-11-04T12:27:42.417Z,67.63
2018-11-04T12:30:13.444Z,68.49
2018-11-04T12:32:41.934Z,65.89
2018-11-04T12:35:11.846Z,70.62
2018-11-04T12:37:40.331Z,67.84
2018-11-04T12:40:10.510Z,68.84
2018-11-04T12:42:39.084Z,69.85
2018-11-04T12:45:09.037Z,72.87
2018-11-04T12:47:37.613Z,72.32
2018-11-04T12:50:07.613Z,71.46
2018-11-04T12:52:36.280Z,72.41
2018-11-04T12:55:05.489Z,71.82
2018-11-04T12:57:34.881Z,69.78
2018-11-04T13:00:03.981Z,69.52
2018-11-04T13:02:32.440Z,68.60
2018-11-04T13:05:02.012Z,72.79
2018-11-04T13:07:30.663Z,70.93
2018-11-04T13:09:59.814Z,71.81
2018-11-04T13:12:30.406Z,70.20
2018-11-04T13:14:59.025Z,69.65
2018-11-04T13:17:28.515Z,68.80
2018-11-04T13:19:57.441Z,70.53
2018-11-04T13:22:27.722Z,70.12
2018-11-04T13:24:56.785Z,70.12
2018-11-04T13:27:25.999Z,70.87
2018-11-04T13:29:55.461Z,69.16
2018-11-04T13:32:24.977Z,71.09
2018-11-04T13:34:54.082Z,71.19
2018-11-04T13:37:23.364Z,71.33
2018-11-04T13:39:51.906Z,71.02
2018-11-04T13:42:20.706Z,70.06
2018-11-04T13:44:50.539Z,70.66
2018-11-04T13:47:19.518Z,72.77
2018-11-04T13:49:49.181Z,72.18
2018-11-04T13:52:18.814Z,72.84
2018-11-04T13:54:48.506Z,72.87
2018-11-04T13:57:17.110Z,72.56
2018-11-04T13:59:46.078Z,73.11
2018-11-04T14:02:15.046Z,74.97
2018-11-04T14:04:44.072Z,74.18
2018-11-04T14:07:13.380Z,73.75
2018-11-04T14:09:43.442Z,73.57
2018-11-04T14:12:12.734Z,75.05
2018-11-04T14:14:41.584Z,75.48
2018-11-04T14:17:10.992Z,75.84
2018-11-04T14:19:39.852Z,76.96
2018-11-04T14:22:08.772Z,76.40
2018-11-04T14:24:37.686Z,77.60
2018-11-04T14:27:06.594Z,76.35
2018-11-04T14:29:35.279Z,77.62
2018-11-04T14:32:04.007Z,77.92
2018-11-04T14:34:32.808Z,77.72
2018-11-04T14:37:01.468Z,78.01
2018-11-04T14:39:31.126Z,78.12
2018-11-04T14:41:59.834Z,78.17
2018-11-04T14:44:28.338Z,79.51
2018-11-04T14:46:56.839Z,78.86
2018-11-04T14:49:25.339Z,79.20
2018-11-04T14:51:53.851Z,79.25
2018-11-04T14:54:22.288Z,78.54
2018-11-04T14:56:50.765Z,78.07
2018-11-04T14:59:19.386Z,78.70
2018-11-04T15:01:48.069Z,78.59
2018-11-04T15:04:17.709Z,78.35
2018-11-04T15:09:45.682Z,79.16
2018-11-04T15:12:14.139Z,78.74
2018-11-04T15:14:42.702Z,79.53
2018-11-04T15:17:11.205Z,78.93
2018-11-04T15:19:39.720Z,79.77
2018-11-04T15:22:09.804Z,78.98
2018-11-04T15:24:38.449Z,78.35
2018-11-04T15:27:06.935Z,78.03
2018-11-04T15:29:35.931Z,78.46
2018-11-04T15:32:05.884Z,78.47
2018-11-04T15:34:34.802Z,79.47
2018-11-04T15:37:03.113Z,78.98
2018-11-04T15:39:31.603Z,79.51
2018-11-04T15:42:00.067Z,79.70
2018-11-04T15:44:28.647Z,79.66
2018-11-04T15:46:57.256Z,80.30
2018-11-04T15:49:25.675Z,79.56
2018-11-04T15:51:54.721Z,79.39
2018-11-04T15:54:23.907Z,79.89
2018-11-04T15:56:52.429Z,80.42
2018-11-04T15:59:20.991Z,81.94
2018-11-04T16:01:50.262Z,80.72
2018-11-04T16:04:19.685Z,80.38
2018-11-04T16:06:50.113Z,81.68
2018-11-04T16:09:18.619Z,81.12
2018-11-04T16:11:47.428Z,81.24
2018-11-04T16:14:15.959Z,80.97
2018-11-04T16:16:46.593Z,81.79
2018-11-04T16:19:15.160Z,81.96
2018-11-04T16:21:43.700Z,81.82
2018-11-04T16:24:12.228Z,81.46
2018-11-04T16:26:40.703Z,82.39
2018-11-04T16:29:09.339Z,81.50
2018-11-04T16:31:44.567Z,81.28
2018-11-04T16:34:13.126Z,80.81
2018-11-04T16:36:41.874Z,81.39
2018-11-04T16:39:10.400Z,81.89
2018-11-04T16:41:38.992Z,82.21
2018-11-04T16:44:08.106Z,82.40
2018-11-04T16:46:37.935Z,82.15
2018-11-04T16:49:07.180Z,82.05
2018-11-04T16:51:35.868Z,81.70
2018-11-04T16:54:04.407Z,80.77
2018-11-04T16:56:32.873Z,82.88
2018-11-04T16:59:01.358Z,82.45
2018-11-04T17:01:29.926Z,82.49
2018-11-04T17:03:59.003Z,81.08
2018-11-04T17:06:28.094Z,82.20
2018-11-04T17:08:57.023Z,81.98
2018-11-04T17:11:26.775Z,82.69
2018-11-04T17:13:55.208Z,82.76
2018-11-04T17:16:23.751Z,82.05
2018-11-04T17:18:52.220Z,82.64
2018-11-04T17:21:21.554Z,81.63
2018-11-04T17:23:50.128Z,82.42
2018-11-04T17:26:18.583Z,82.34
2018-11-04T17:28:47.973Z,81.70
2018-11-04T17:31:16.640Z,82.36
2018-11-04T17:33:45.568Z,82.67
2018-11-04T17:36:14.624Z,82.32
2018-11-04T17:38:43.173Z,83.47
2018-11-04T17:41:11.665Z,82.69
2018-11-04T17:43:40.225Z,82.38
2018-11-04T17:46:09.542Z,82.39
2018-11-04T17:48:38.052Z,81.91
2018-11-04T17:51:06.513Z,82.90
2018-11-04T17:53:35.132Z,82.44
2018-11-04T17:56:03.632Z,82.83
2018-11-04T17:58:32.080Z,81.97
2018-11-04T18:01:00.524Z,81.42
2018-11-04T18:03:29.427Z,82.62
2018-11-04T18:06:00.817Z,82.23
2018-11-04T18:08:29.637Z,82.26
2018-11-04T18:10:58.202Z,83.40
2018-11-04T18:13:26.718Z,83.64
2018-11-04T18:15:55.256Z,82.81
2018-11-04T18:18:23.789Z,81.98
2018-11-04T18:20:52.220Z,83.32
2018-11-04T18:23:20.725Z,82.00
2018-11-04T18:25:50.036Z,82.06
2018-11-04T18:28:18.508Z,82.00
2018-11-04T18:30:48.631Z,82.82
2018-11-04T18:33:17.251Z,82.15
2018-11-04T18:35:45.719Z,81.64
2018-11-04T18:38:14.216Z,82.23
2018-11-04T18:40:42.711Z,82.12
2018-11-04T18:43:11.255Z,82.18
2018-11-04T18:45:39.672Z,82.07
2018-11-04T18:48:08.184Z,82.44
2018-11-04T18:50:36.676Z,83.41
2018-11-04T18:53:05.423Z,83.89
2018-11-04T18:55:33.873Z,83.80
2018-11-04T18:58:02.350Z,83.02
2018-11-04T19:00:30.798Z,82.75
2018-11-04T19:02:59.371Z,83.99
2018-11-04T19:05:29.589Z,84.02
2018-11-04T19:07:58.116Z,83.14
2018-11-04T19:10:26.944Z,84.06
2018-11-04T19:12:55.665Z,83.36
2018-11-04T19:15:24.084Z,83.18
2018-11-04T19:17:52.565Z,83.69
2018-11-04T19:20:20.991Z,83.04
2018-11-04T19:22:49.584Z,83.44
2018-11-04T19:25:19.097Z,83.03
2018-11-04T19:27:47.599Z,83.17
2018-11-04T19:30:17.296Z,82.84
2018-11-04T19:32:46.210Z,83.73
2018-11-04T19:35:15.391Z,83.09
2018-11-04T19:37:43.909Z,82.27
2018-11-04T19:40:14.103Z,83.25
2018-11-04T19:42:42.940Z,83.61
2018-11-04T19:45:11.290Z,83.45
2018-11-04T19:47:40.184Z,84.01
2018-11-04T19:50:12.724Z,84.09
2018-11-04T19:52:42.116Z,82.38
2018-11-04T19:55:11.360Z,82.68
2018-11-04T19:57:39.871Z,83.37
2018-11-04T20:00:09.968Z,83.94
2018-11-04T20:02:38.979Z,83.84
2018-11-04T20:05:09.020Z,84.37
2018-11-04T20:07:38.223Z,84.39
2018-11-04T20:10:09.265Z,84.21
2018-11-04T20:12:42.973Z,83.98
2018-11-04T20:15:12.822Z,83.43
2018-11-04T20:17:41.275Z,84.04
2018-11-04T20:20:15.892Z,84.40
2018-11-04T20:22:44.352Z,84.98
2018-11-04T20:25:18.300Z,84.30
2018-11-04T20:27:46.902Z,84.47
2018-11-04T20:30:15.735Z,84.49
2018-11-04T20:32:49.296Z,84.84
2018-11-04T20:35:18.882Z,84.66
2018-11-04T20:37:47.537Z,85.02
2018-11-04T20:40:21.427Z,85.35
2018-11-04T20:42:49.901Z,84.86
2018-11-04T20:45:20.121Z,84.63
2018-11-04T20:47:54.064Z,84.33
2018-11-04T20:50:27.804Z,84.84
2018-11-04T20:52:56.329Z,85.07
2018-11-04T20:55:29.782Z,85.00
2018-11-04T20:57:59.162Z,84.37
2018-11-04T21:00:28.016Z,85.69
2018-11-04T21:02:56.724Z,84.21
2018-11-04T21:05:26.219Z,84.94
2018-11-04T21:07:54.916Z,85.22
2018-11-04T21:10:24.463Z,85.37
2018-11-04T21:12:53.652Z,86.01
2018-11-04T21:15:22.160Z,85.51
2018-11-04T21:17:50.707Z,85.55
2018-11-04T21:20:19.189Z,85.09
2018-11-04T21:22:47.872Z,84.72
2018-11-04T21:25:16.786Z,84.89
2018-11-04T21:27:45.308Z,84.43
2018-11-04T21:30:14.062Z,85.54
2018-11-04T21:32:42.934Z,84.84
2018-11-04T21:35:11.959Z,85.05
2018-11-04T21:37:40.509Z,85.52
2018-11-04T21:40:09.863Z,85.61
2018-11-04T21:42:39.445Z,85.25
2018-11-04T21:45:10.167Z,84.98
2018-11-04T21:47:38.604Z,86.14
2018-11-04T21:50:08.049Z,85.19
2018-11-04T21:52:36.519Z,84.71
2018-11-04T21:55:05.939Z,84.93
2018-11-04T21:57:34.415Z,84.80
2018-11-04T22:00:03.904Z,85.34
2018-11-04T22:02:32.523Z,85.41
2018-11-04T22:05:01.993Z,85.53
2018-11-04T22:07:30.536Z,85.51
2018-11-04T22:10:00.645Z,85.53
2018-11-04T22:12:29.683Z,86.30
2018-11-04T22:14:58.760Z,85.85
2018-11-04T22:17:28.437Z,84.91
2018-11-04T22:19:57.021Z,85.75
2018-11-04T22:22:25.481Z,85.23
2018-11-04T22:24:54.159Z,85.69
2018-11-04T22:27:22.830Z,85.15
2018-11-04T22:29:51.299Z,85.39
2018-11-04T22:32:19.768Z,85.46
2018-11-04T22:34:48.312Z,86.74
2018-11-04T22:37:16.724Z,84.63
2018-11-04T22:39:45.860Z,85.66
2018-11-04T22:42:14.396Z,85.69
2018-11-04T22:44:42.827Z,85.89
2018-11-04T22:47:11.289Z,85.38
2018-11-04T22:49:39.879Z,85.01
2018-11-04T22:52:10.041Z,85.99
2018-11-04T22:54:40.281Z,85.52
2018-11-04T22:57:08.971Z,87.54
2018-11-04T22:59:37.491Z,87.95
2018-11-04T23:02:05.958Z,87.39
2018-11-04T23:04:39.818Z,87.49
2018-11-04T23:07:08.598Z,87.49
2018-11-04T23:09:37.059Z,87.32
2018-11-04T23:12:05.912Z,87.97
2018-11-04T23:14:34.404Z,86.89
2018-11-04T23:17:03.811Z,86.70
2018-11-04T23:19:32.679Z,85.58
2018-11-04T23:22:01.188Z,86.32
2018-11-04T23:24:30.588Z,86.99
2018-11-04T23:26:59.627Z,87.89
2018-11-04T23:29:28.253Z,86.76
2018-11-04T23:31:56.736Z,86.31
2018-11-04T23:34:25.327Z,87.30
2018-11-04T23:36:54.029Z,87.17
2018-11-04T23:39:22.475Z,86.73
2018-11-04T23:41:50.973Z,85.78
2018-11-04T23:44:19.438Z,86.03
2018-11-04T23:46:47.970Z,85.81
2018-11-04T23:49:16.428Z,85.87
2018-11-04T23:51:44.981Z,85.18
2018-11-04T23:54:13.436Z,86.02
2018-11-04T23:56:41.925Z,87.67
2018-11-04T23:59:11.077Z,87.79
